createdAt,value
2017-07-29T00:00:02.644Z,1
2017-07-29T00:05:02.642Z,0
2017-07-29T00:10:03.112Z,0
2017-07-29T00:15:02.536Z,0
2017-07-29T00:20:03.107Z,1
2017-07-29T00:25:03.374Z,0
2017-07-29T00:30:02.731Z,0
2017-07-29T00:35:03.081Z,1
2017-07-29T00:40:02.583Z,0
2017-07-29T00:45:03.032Z,0
2017-07-29T00:50:02.526Z,0
2017-07-29T00:55:02.974Z,2
2017-07-29T01:00:03.485Z,0
2017-07-29T01:05:02.789Z,2
2017-07-29T01:10:03.203Z,2
2017-07-29T01:15:02.697Z,2
2017-07-29T01:20:03.075Z,0
2017-07-29T01:25:02.547Z,2
2017-07-29T01:30:02.966Z,0
2017-07-29T01:35:03.314Z,4
2017-07-29T01:40:02.791Z,3
2017-07-29T01:45:03.274Z,3
2017-07-29T01:50:02.703Z,5
2017-07-29T01:55:03.081Z,5
2017-07-29T02:00:03.455Z,5
2017-07-29T02:05:02.752Z,5
2017-07-29T02:10:03.109Z,5
2017-07-29T02:15:02.626Z,7
2017-07-29T02:20:02.991Z,6
2017-07-29T02:25:03.373Z,6
2017-07-29T02:30:02.838Z,9
2017-07-29T02:35:03.343Z,7
2017-07-29T02:40:02.722Z,7
2017-07-29T02:45:03.057Z,9
2017-07-29T02:50:02.523Z,5
2017-07-29T02:55:02.981Z,5
2017-07-29T03:00:03.294Z,6
2017-07-29T03:05:02.738Z,7
2017-07-29T03:10:03.290Z,7
2017-07-29T03:15:02.708Z,8
2017-07-29T03:20:03.071Z,5
2017-07-29T03:25:02.547Z,7
2017-07-29T03:30:03.023Z,4
2017-07-29T03:35:03.517Z,5
2017-07-29T03:40:02.852Z,6
2017-07-29T03:45:03.259Z,8
2017-07-29T03:50:02.591Z,7
2017-07-29T03:55:02.920Z,9
2017-07-29T04:00:03.432Z,5
2017-07-29T04:05:02.849Z,6
2017-07-29T04:10:03.358Z,7
2017-07-29T04:15:02.686Z,9
2017-07-29T04:20:03.057Z,6
2017-07-29T04:25:03.382Z,6
2017-07-29T04:30:02.614Z,7
2017-07-29T04:35:02.957Z,7
2017-07-29T04:40:03.453Z,7
2017-07-29T04:45:02.741Z,5
2017-07-29T04:50:03.220Z,8
2017-07-29T04:55:02.520Z,6
2017-07-29T05:00:02.822Z,8
2017-07-29T05:05:02.871Z,7
2017-07-29T05:10:02.637Z,8
2017-07-29T05:15:02.890Z,9
2017-07-29T05:20:03.232Z,7
2017-07-29T05:25:02.547Z,11
2017-07-29T05:30:02.847Z,9
2017-07-29T05:35:03.161Z,8
2017-07-29T05:40:02.641Z,7
2017-07-29T05:45:02.981Z,13
2017-07-29T05:50:03.313Z,9
2017-07-29T05:55:02.595Z,11
2017-07-29T06:00:02.873Z,6
2017-07-29T06:05:03.346Z,8
2017-07-29T06:10:03.009Z,8
2017-07-29T06:15:02.545Z,10
2017-07-29T06:20:02.870Z,9
2017-07-29T06:25:03.422Z,8
2017-07-29T06:30:02.886Z,10
2017-07-29T06:35:03.330Z,9
2017-07-29T06:40:02.773Z,10
2017-07-29T06:45:03.195Z,7
2017-07-29T06:50:02.509Z,10
2017-07-29T06:55:02.832Z,10
2017-07-29T07:00:03.084Z,9
2017-07-29T07:05:02.508Z,7
2017-07-29T07:10:02.869Z,9
2017-07-29T07:15:03.164Z,10
2017-07-29T07:20:02.620Z,7
2017-07-29T07:25:03.075Z,14
2017-07-29T07:30:03.629Z,13
2017-07-29T07:35:03.028Z,9
2017-07-29T07:40:03.406Z,8
2017-07-29T07:45:02.787Z,8
2017-07-29T07:50:03.351Z,12
2017-07-29T07:55:02.670Z,7
2017-07-29T08:00:03.145Z,7
2017-07-29T08:05:02.491Z,8
2017-07-29T08:10:02.851Z,10
2017-07-29T08:15:03.325Z,8
2017-07-29T08:20:02.638Z,9
2017-07-29T08:25:02.980Z,7
2017-07-29T08:30:03.267Z,9
2017-07-29T08:35:02.549Z,4
2017-07-29T08:40:02.862Z,15
2017-07-29T08:45:03.181Z,9
2017-07-29T08:50:02.724Z,4
2017-07-29T08:55:03.033Z,10
2017-07-29T09:00:03.338Z,6
2017-07-29T09:05:02.833Z,8
2017-07-29T09:10:03.328Z,9
2017-07-29T09:15:02.632Z,7
2017-07-29T09:20:03.100Z,11
2017-07-29T09:25:02.523Z,7
2017-07-29T09:30:02.974Z,8
2017-07-29T09:35:03.307Z,9
2017-07-29T09:40:02.817Z,6
2017-07-29T09:45:03.284Z,8
2017-07-29T09:50:02.573Z,9
2017-07-29T09:55:02.916Z,10
2017-07-29T10:00:03.433Z,8
2017-07-29T10:05:02.853Z,9
2017-07-29T10:10:03.340Z,8
2017-07-29T10:15:02.616Z,9
2017-07-29T10:20:03.160Z,7
2017-07-29T10:25:03.428Z,7
2017-07-29T10:30:02.743Z,4
2017-07-29T10:35:03.012Z,7
2017-07-29T10:40:02.587Z,9
2017-07-29T10:45:02.916Z,4
2017-07-29T10:50:03.266Z,6
2017-07-29T10:55:02.710Z,7
2017-07-29T11:00:03.046Z,10
2017-07-29T11:05:02.480Z,9
2017-07-29T11:10:02.786Z,7
2017-07-29T11:15:03.289Z,7
2017-07-29T11:20:02.766Z,7
2017-07-29T11:25:03.152Z,5
2017-07-29T11:30:02.591Z,6
2017-07-29T11:35:03.128Z,5
2017-07-29T11:40:02.513Z,5
2017-07-29T11:45:02.831Z,6
2017-07-29T11:50:03.182Z,6
2017-07-29T11:55:02.635Z,5
2017-07-29T12:00:02.987Z,6
2017-07-29T12:05:03.447Z,8
2017-07-29T12:10:02.805Z,9
2017-07-29T12:15:03.133Z,2
2017-07-29T12:20:02.514Z,7
2017-07-29T12:25:02.894Z,4
2017-07-29T12:30:03.293Z,6
2017-07-29T12:35:02.684Z,9
2017-07-29T12:40:03.097Z,5
2017-07-29T12:45:03.376Z,7
2017-07-29T12:50:02.729Z,8
2017-07-29T12:55:03.038Z,5
2017-07-29T13:00:03.390Z,10
2017-07-29T13:05:02.841Z,7
2017-07-29T13:10:03.281Z,9
2017-07-29T13:15:02.563Z,7
2017-07-29T13:20:03.044Z,9
2017-07-29T13:25:03.324Z,12
2017-07-29T13:30:02.618Z,9
2017-07-29T13:35:03.197Z,5
2017-07-29T13:40:02.678Z,10
2017-07-29T13:45:03.039Z,7
2017-07-29T13:50:03.398Z,12
2017-07-29T13:55:02.924Z,7
2017-07-29T14:00:03.376Z,7
2017-07-29T14:05:02.797Z,9
2017-07-29T14:10:03.370Z,10
2017-07-29T14:15:02.826Z,11
2017-07-29T14:20:03.207Z,4
2017-07-29T14:25:02.590Z,7
2017-07-29T14:30:03.069Z,7
2017-07-29T14:35:03.406Z,5
2017-07-29T14:40:02.917Z,7
2017-07-29T14:45:03.363Z,6
2017-07-29T14:50:02.702Z,6
2017-07-29T14:55:02.965Z,4
2017-07-29T15:00:03.412Z,8
2017-07-29T15:05:02.784Z,6
2017-07-29T15:10:03.272Z,5
2017-07-29T15:15:02.617Z,6
2017-07-29T15:20:03.079Z,9
2017-07-29T15:25:02.517Z,7
2017-07-29T15:30:02.890Z,4
2017-07-29T15:35:03.177Z,6
2017-07-29T15:40:02.650Z,2
2017-07-29T15:45:03.016Z,0
2017-07-29T15:50:03.307Z,4
2017-07-29T15:55:02.726Z,5
2017-07-29T16:00:03.128Z,2
2017-07-29T16:05:02.432Z,2
2017-07-29T16:10:02.843Z,2
2017-07-29T16:15:03.409Z,3
2017-07-29T16:20:02.830Z,0
2017-07-29T16:25:03.311Z,2
2017-07-29T16:30:02.610Z,2
2017-07-29T16:35:03.034Z,5
2017-07-29T16:40:03.454Z,6
2017-07-29T16:45:02.767Z,3
2017-07-29T16:50:03.226Z,3
2017-07-29T16:55:02.534Z,3
2017-07-29T17:00:03.028Z,0
2017-07-29T17:05:03.386Z,2
2017-07-29T17:10:02.871Z,2
2017-07-29T17:15:03.214Z,2
2017-07-29T17:20:02.690Z,5
2017-07-29T17:25:03.040Z,1
2017-07-29T17:30:02.524Z,3
2017-07-29T17:35:03.078Z,4
2017-07-29T17:40:03.461Z,0
2017-07-29T17:45:02.897Z,0
2017-07-29T17:50:03.358Z,0
2017-07-29T17:55:02.825Z,0
2017-07-29T18:00:03.252Z,0
2017-07-29T18:05:02.582Z,0
2017-07-29T18:10:02.995Z,0
2017-07-29T18:15:03.396Z,0
2017-07-29T18:20:02.733Z,0
2017-07-29T18:25:03.151Z,0
2017-07-29T18:30:03.398Z,0
2017-07-29T18:35:02.862Z,0
2017-07-29T18:40:03.223Z,0
2017-07-29T18:45:02.684Z,0
2017-07-29T18:50:03.116Z,0
2017-07-29T18:55:02.622Z,0
2017-07-29T19:00:02.922Z,0
2017-07-29T19:05:03.372Z,0
2017-07-29T19:10:02.760Z,0
2017-07-29T19:15:03.052Z,0
2017-07-29T19:20:02.709Z,0
2017-07-29T19:25:02.979Z,0
2017-07-29T19:30:03.421Z,0
2017-07-29T19:35:02.712Z,0
2017-07-29T19:40:03.081Z,0
2017-07-29T19:45:02.653Z,0
2017-07-29T19:50:03.152Z,0
2017-07-29T19:55:02.619Z,0
2017-07-29T20:00:03.065Z,0
2017-07-29T20:05:02.499Z,0
2017-07-29T20:10:03.047Z,0
2017-07-29T20:15:02.493Z,0
2017-07-29T20:20:02.984Z,0
2017-07-29T20:25:03.309Z,0
2017-07-29T20:30:02.800Z,0
2017-07-29T20:35:03.441Z,0
2017-07-29T20:40:02.801Z,0
2017-07-29T20:45:03.089Z,0
2017-07-29T20:50:02.540Z,0
2017-07-29T20:55:02.842Z,0
2017-07-29T21:00:03.396Z,0
2017-07-29T21:05:02.822Z,0
2017-07-29T21:10:03.167Z,0
2017-07-29T21:15:02.534Z,0
2017-07-29T21:20:03.024Z,0
2017-07-29T21:25:02.492Z,0
2017-07-29T21:30:02.981Z,0
2017-07-29T21:35:03.420Z,2
2017-07-29T21:40:02.728Z,4
2017-07-29T21:45:03.076Z,3
2017-07-29T21:50:02.526Z,3
2017-07-29T21:55:02.994Z,6
2017-07-29T22:00:03.250Z,6
2017-07-29T22:05:02.599Z,4
2017-07-29T22:10:03.074Z,5
2017-07-29T22:15:02.535Z,4
2017-07-29T22:20:03.018Z,6
2017-07-29T22:25:03.318Z,4
2017-07-29T22:30:02.572Z,4
2017-07-29T22:35:03.076Z,6
2017-07-29T22:40:02.691Z,4
2017-07-29T22:45:02.974Z,6
2017-07-29T22:50:02.450Z,5
2017-07-29T22:55:02.807Z,5
2017-07-29T23:00:03.505Z,5
2017-07-29T23:05:02.821Z,4
2017-07-29T23:10:03.181Z,5
2017-07-29T23:15:02.454Z,2
2017-07-29T23:20:02.808Z,3
2017-07-29T23:25:03.225Z,3
2017-07-29T23:30:02.678Z,5
2017-07-29T23:35:03.130Z,2
2017-07-29T23:40:02.459Z,2
2017-07-29T23:45:02.774Z,2
2017-07-29T23:50:03.095Z,3
2017-07-29T23:55:03.412Z,2
